De Land, Illinois
Current Conditions -  °F | °C
As of 1:53 PM on Saturday 20 Dec 2014 (Local Time) from KCMI Reporting Station
Overcast Overcast  
Wind Chill: 28°   Ceiling: 6000
Heat Index: 34°   Visibility: 10mi
Dew Point: 26°   Wind: 7mph
Humidity: 73%   Direction: 170°S
Pressure: 30.25"   Gusts: NA
Location:  40.12°N, 88.65°W
Report Text: KCMI 201953Z 17006KT 10SM OVC060 01/M03 A3025 RMK AO2 SLP251 T00111033
Loading
Personal Weather Stations






























Interactive Weather Map New forecast layout! Learn more

10-Day Weather Forecast

Advertisements
Track Severe Weather on mobile